Terminal Aerodrome Forecast
Issued by NWS Sioux Falls, SD

Home | Current Version | Previous Version | Text Only | Print | Product List | Glossary Off
Versions: 1 2 3 4 5 6 7 8 9 10 11 12 13 14 15 16 17 18 19 20 21 22 23 24 25 26 27 28 29 30 31 32 33 34 35 36

000
FTUS43 KFSD 242300 RRA
TAFSUX
TAF
KSUX 242344Z 2500/2524 15014G21KT P6SM BKN070
     FM250900 14011KT P6SM FEW008 SCT200
     FM251400 20007KT P6SM SCT015
     FM251600 27010KT P6SM SCT025
      TEMPO 2516/2520 BKN025
     FM252100 32010KT P6SM SCT030=

USA.gov is the U.S. government's official web portal to all federal, state and local government web resources and services.